Time;durP1;ratioP1;P1;durP2;ratioP2;P2;SDS_P1;SDS_P2;PMS_P1;PMS_P2;Temp;Humidity;BMP_temperature;BMP_pressure;BME280_temperature;BME280_humidity;BME280_pressure;Samples;Min_cycle;Max_cycle;Signal;HPM_P1;HPM_P2
2023/09/14 00:00:51;;;;;;;6.53;5.90;;;;;;;19.40;59.00;97646.09;4925848;28;20336;-85
2023/09/14 00:03:17;;;;;;;7.30;6.30;;;;;;;19.55;59.32;97677.53;4948554;28;20214;-85
2023/09/14 00:05:43;;;;;;;6.47;5.88;;;;;;;19.30;59.65;97635.69;4960396;28;20360;-85
2023/09/14 00:08:09;;;;;;;7.03;6.32;;;;;;;19.37;59.50;97641.38;4925778;28;20213;-85
2023/09/14 00:10:35;;;;;;;6.45;5.88;;;;;;;19.48;58.79;97661.25;4939287;28;20169;-85
2023/09/14 00:13:01;;;;;;;6.70;6.10;;;;;;;19.27;58.87;97648.38;4924862;28;20141;-85
2023/09/14 00:15:26;;;;;;;7.07;6.07;;;;;;;19.34;59.20;97660.44;4923577;28;20556;-85
2023/09/14 00:17:52;;;;;;;7.25;6.53;;;;;;;19.17;60.56;97667.03;4962275;28;20207;-85
2023/09/14 00:20:23;;;;;;;8.57;7.43;;;;;;;19.11;60.79;97664.75;4930085;28;20208;-85
2023/09/14 00:22:50;;;;;;;11.50;7.03;;;;;;;19.01;60.50;97650.66;4954287;28;20111;-85
2023/09/14 00:25:17;;;;;;;7.38;6.53;;;;;;;19.08;60.75;97660.84;4928339;28;20182;-85
2023/09/14 00:27:42;;;;;;;7.93;7.13;;;;;;;18.97;60.16;97647.03;4948450;28;20289;-84
2023/09/14 00:30:08;;;;;;;7.50;6.80;;;;;;;18.95;60.34;97656.28;4929386;28;20335;-85
2023/09/14 00:32:38;;;;;;;6.72;6.07;;;;;;;18.91;60.32;97650.81;4938541;28;20166;-85
2023/09/14 00:35:05;;;;;;;7.43;6.72;;;;;;;18.92;60.42;97656.84;4927507;28;20271;-85
2023/09/14 00:37:31;;;;;;;7.07;6.35;;;;;;;18.87;60.61;97660.38;4908428;28;20099;-86
2023/09/14 00:39:56;;;;;;;8.95;7.05;;;;;;;18.80;60.66;97663.34;4927725;28;20210;-85
2023/09/14 00:42:22;;;;;;;7.03;6.22;;;;;;;18.80;60.66;97665.16;4933186;28;20170;-86
2023/09/14 00:44:47;;;;;;;7.57;6.57;;;;;;;18.85;60.41;97673.84;4927559;28;20117;-85
2023/09/14 00:47:13;;;;;;;8.25;6.60;;;;;;;18.62;60.55;97659.59;4943577;28;20170;-86
2023/09/14 00:49:38;;;;;;;7.57;6.72;;;;;;;18.73;61.37;97670.81;4921486;28;20267;-86
2023/09/14 00:52:05;;;;;;;7.53;6.45;;;;;;;18.60;61.25;97667.03;4901692;28;20487;-85
2023/09/14 00:54:30;;;;;;;7.72;6.93;;;;;;;18.56;61.76;97666.03;4931249;28;20138;-85
2023/09/14 00:56:56;;;;;;;9.32;7.55;;;;;;;18.51;62.28;97660.81;4942659;28;20236;-85
2023/09/14 00:59:21;;;;;;;10.18;7.45;;;;;;;18.33;62.36;97636.00;4914463;28;20212;-86
2023/09/14 01:01:47;;;;;;;7.97;6.93;;;;;;;18.42;62.96;97668.59;4918115;28;20038;-85
2023/09/14 01:04:13;;;;;;;8.30;7.20;;;;;;;18.23;62.95;97657.22;4922779;28;20269;-85
2023/09/14 01:06:38;;;;;;;8.38;7.25;;;;;;;18.22;63.54;97655.66;4934405;28;20158;-85
2023/09/14 01:09:05;;;;;;;11.20;7.20;;;;;;;18.11;64.04;97655.78;4951953;28;20201;-85
2023/09/14 01:11:30;;;;;;;8.65;7.20;;;;;;;18.05;64.33;97653.47;4924498;28;20225;-85
2023/09/14 01:14:23;;;;;;;8.35;7.40;;;;;;;18.19;64.18;97656.22;4928002;28;20237;-85
2023/09/14 01:16:55;;;;;;;7.63;6.53;;;;;;;18.20;63.03;97660.41;4918707;28;20262;-85
2023/09/14 01:19:46;;;;;;;7.90;6.90;;;;;;;18.24;62.82;97658.78;4943983;28;20217;-86
2023/09/14 01:22:20;;;;;;;8.23;7.30;;;;;;;18.20;63.81;97657.75;4949530;28;20251;-85
2023/09/14 01:25:01;;;;;;;8.52;6.43;;;;;;;18.09;64.09;97662.38;4948626;28;20147;-86
2023/09/14 01:27:28;;;;;;;7.68;6.13;;;;;;;18.14;64.38;97659.69;4919439;28;20229;-86
2023/09/14 01:29:56;;;;;;;6.38;5.78;;;;;;;18.15;64.10;97662.03;4927333;28;20159;-86
2023/09/14 01:32:22;;;;;;;8.05;6.47;;;;;;;18.02;63.79;97643.50;4935331;28;20288;-85
2023/09/14 01:34:47;;;;;;;7.03;5.70;;;;;;;17.99;63.82;97644.03;4940895;28;20169;-85
2023/09/14 01:37:14;;;;;;;8.23;5.43;;;;;;;17.82;64.27;97623.38;4922492;28;20197;-85
2023/09/14 01:39:40;;;;;;;5.88;5.20;;;;;;;18.09;64.33;97662.38;4931374;28;20232;-86
2023/09/14 01:42:05;;;;;;;6.45;5.57;;;;;;;18.10;64.07;97672.63;4933247;28;20255;-86
2023/09/14 01:44:31;;;;;;;6.70;5.47;;;;;;;17.98;63.54;97645.13;4903596;28;20204;-85
2023/09/14 01:46:56;;;;;;;6.65;5.22;;;;;;;18.11;63.27;97666.31;4909143;28;20691;-86
2023/09/14 01:49:22;;;;;;;6.05;5.07;;;;;;;18.10;63.05;97674.50;4896949;28;20196;-86
2023/09/14 01:51:48;;;;;;;6.30;5.65;;;;;;;17.99;63.43;97665.13;4935253;28;20206;-86
2023/09/14 01:54:13;;;;;;;7.13;4.75;;;;;;;17.88;63.12;97656.56;4928472;28;20193;-86
2023/09/14 01:56:41;;;;;;;6.45;4.90;;;;;;;18.02;63.56;97670.63;4916666;28;20103;-85
2023/09/14 01:59:07;;;;;;;5.32;4.82;;;;;;;18.01;63.58;97682.25;4929251;28;20171;-85
2023/09/14 02:01:32;;;;;;;6.10;4.72;;;;;;;17.93;62.94;97659.91;4900410;28;20193;-86
2023/09/14 02:03:57;;;;;;;7.47;4.50;;;;;;;17.98;63.32;97671.47;4920367;28;20111;-86
2023/09/14 02:06:23;;;;;;;5.95;4.55;;;;;;;17.94;63.26;97682.56;4925207;28;20209;-86
2023/09/14 02:08:48;;;;;;;5.13;4.47;;;;;;;17.75;63.55;97669.28;4938109;28;20229;-86
2023/09/14 02:11:14;;;;;;;5.65;4.78;;;;;;;17.72;63.04;97664.56;4919773;28;20297;-86
2023/09/14 02:13:40;;;;;;;5.55;4.63;;;;;;;17.86;62.97;97679.72;4906084;28;20273;-86
2023/09/14 02:16:06;;;;;;;6.10;4.60;;;;;;;17.84;63.13;97673.94;4930057;28;20252;-86
2023/09/14 02:18:31;;;;;;;5.72;4.30;;;;;;;17.62;63.30;97648.88;4924099;28;20706;-86
2023/09/14 02:20:59;;;;;;;4.85;4.10;;;;;;;17.63;62.92;97660.19;4920521;28;20516;-86
2023/09/14 02:23:24;;;;;;;4.90;4.18;;;;;;;17.60;63.17;97678.13;4922588;28;20184;-86
2023/09/14 02:25:50;;;;;;;6.00;3.97;;;;;;;17.58;62.80;97668.91;4930902;28;20698;-86
2023/09/14 02:28:15;;;;;;;4.55;4.15;;;;;;;17.39;63.42;97647.75;4918769;28;20654;-86
2023/09/14 02:30:41;;;;;;;4.40;3.92;;;;;;;17.58;63.47;97679.44;4917999;28;20210;-86
2023/09/14 02:33:07;;;;;;;4.30;3.90;;;;;;;17.55;63.93;97674.75;4923806;28;20230;-86
2023/09/14 02:35:33;;;;;;;3.90;3.22;;;;;;;17.45;63.55;97674.84;4918199;28;20194;-86
2023/09/14 02:37:59;;;;;;;4.07;3.67;;;;;;;17.42;63.60;97679.56;4938531;28;20149;-85
2023/09/14 02:40:24;;;;;;;4.90;3.25;;;;;;;17.28;63.05;97659.44;4925218;28;20364;-85
2023/09/14 02:42:50;;;;;;;6.00;4.10;;;;;;;17.45;62.58;97683.50;4899817;28;20240;-86
2023/09/14 02:45:15;;;;;;;6.25;4.28;;;;;;;17.34;62.66;97664.41;4921240;28;20532;-86
2023/09/14 02:47:40;;;;;;;4.35;3.95;;;;;;;17.51;62.46;97679.78;4927055;28;20140;-85
2023/09/14 02:50:06;;;;;;;4.57;4.07;;;;;;;17.32;62.41;97666.50;4900794;28;20216;-86
2023/09/14 02:52:32;;;;;;;5.78;3.95;;;;;;;17.27;62.53;97669.16;4909354;28;20295;-85
2023/09/14 02:54:59;;;;;;;4.35;3.50;;;;;;;17.35;62.83;97683.59;4936018;28;20166;-86
2023/09/14 02:57:24;;;;;;;3.95;3.50;;;;;;;17.42;62.22;97687.47;4932834;28;20034;-85
2023/09/14 02:59:53;;;;;;;3.92;2.97;;;;;;;17.53;62.36;97690.00;4931188;28;20687;-85
2023/09/14 03:02:19;;;;;;;3.60;3.28;;;;;;;17.27;62.56;97669.16;4936911;28;20548;-85
2023/09/14 03:04:45;;;;;;;4.15;3.33;;;;;;;17.23;62.34;97676.06;4938043;28;20053;-85
2023/09/14 03:07:10;;;;;;;3.58;3.10;;;;;;;17.17;62.55;97661.34;4926956;28;20262;-85
2023/09/14 03:09:35;;;;;;;4.35;3.35;;;;;;;17.25;62.39;97686.31;4941261;28;20558;-85
2023/09/14 03:12:02;;;;;;;4.57;2.97;;;;;;;17.23;61.76;97681.31;4933902;28;20207;-84
2023/09/14 03:14:27;;;;;;;3.05;2.72;;;;;;;17.23;61.89;97687.34;4936764;28;20098;-85
2023/09/14 03:16:53;;;;;;;3.30;2.83;;;;;;;17.17;61.69;97685.03;4964852;28;20106;-84
2023/09/14 03:19:18;;;;;;;4.07;3.40;;;;;;;17.16;62.35;97694.00;4970673;28;20150;-85
2023/09/14 03:21:44;;;;;;;3.95;3.30;;;;;;;17.10;61.77;97695.88;4933535;28;20122;-84
2023/09/14 03:24:09;;;;;;;4.05;3.55;;;;;;;17.03;61.59;97677.78;4944151;28;20383;-84
2023/09/14 03:26:35;;;;;;;3.80;3.17;;;;;;;17.07;61.54;97685.91;4922700;28;20282;-85
2023/09/14 03:29:00;;;;;;;3.17;2.65;;;;;;;17.27;60.40;97686.81;4942075;28;20210;-85
2023/09/14 03:31:26;;;;;;;3.70;2.83;;;;;;;17.27;60.32;97682.31;4958785;28;20285;-85
2023/09/14 03:33:52;;;;;;;3.72;2.95;;;;;;;17.42;59.91;97703.25;4928318;28;20274;-85
2023/09/14 03:36:18;;;;;;;3.08;2.78;;;;;;;17.37;60.15;97713.84;4936249;28;20191;-85
2023/09/14 03:38:44;;;;;;;3.22;2.92;;;;;;;17.11;60.92;97701.94;4941023;28;20262;-85
2023/09/14 03:41:11;;;;;;;5.70;3.95;;;;;;;16.99;60.20;97695.16;4971898;28;20352;-85
2023/09/14 03:43:37;;;;;;;4.55;4.03;;;;;;;17.06;60.16;97720.38;4952687;28;20232;-85
2023/09/14 03:46:03;;;;;;;4.75;3.65;;;;;;;16.99;60.83;97721.47;4929317;28;20111;-84
2023/09/14 03:48:28;;;;;;;4.55;3.45;;;;;;;16.88;60.30;97713.88;4931946;28;20533;-84
2023/09/14 03:50:58;;;;;;;4.25;3.42;;;;;;;16.87;60.77;97710.47;4943019;28;20045;-84
2023/09/14 03:53:24;;;;;;;4.45;3.60;;;;;;;16.78;60.60;97698.94;4931443;28;20248;-84
2023/09/14 03:55:50;;;;;;;3.80;3.40;;;;;;;16.91;61.28;97706.25;4947529;28;20224;-84
2023/09/14 03:58:15;;;;;;;3.85;3.45;;;;;;;16.84;60.66;97714.47;4924300;28;20033;-84
2023/09/14 04:00:40;;;;;;;4.03;3.58;;;;;;;16.84;61.28;97717.09;4950965;28;20250;-84
2023/09/14 04:03:06;;;;;;;5.22;3.53;;;;;;;16.67;61.49;97682.41;4926935;28;20209;-84
2023/09/14 04:05:31;;;;;;;5.43;3.55;;;;;;;16.65;61.60;97706.34;4949459;28;20196;-85
2023/09/14 04:07:56;;;;;;;5.03;4.47;;;;;;;16.68;62.27;97712.91;4946183;28;20219;-85
2023/09/14 04:10:22;;;;;;;6.40;4.40;;;;;;;16.68;61.38;97710.28;4926385;28;20290;-85
2023/09/14 04:12:48;;;;;;;5.53;3.80;;;;;;;16.66;61.66;97709.78;4912350;28;20229;-85
2023/09/14 04:15:14;;;;;;;3.60;3.25;;;;;;;16.57;61.15;97706.94;4916170;28;20112;-85
2023/09/14 04:17:39;;;;;;;5.05;3.28;;;;;;;16.42;61.27;97707.00;4920450;28;20216;-85
2023/09/14 04:20:11;;;;;;;5.78;3.63;;;;;;;16.50;61.46;97734.53;4930641;28;20298;-85
2023/09/14 04:22:38;;;;;;;4.70;3.53;;;;;;;16.39;61.87;97718.03;4919633;28;20208;-85
2023/09/14 04:25:03;;;;;;;4.03;3.30;;;;;;;16.29;62.44;97709.13;4951246;28;20663;-85
2023/09/14 04:27:29;;;;;;;3.50;3.20;;;;;;;16.35;62.39;97719.63;4908208;28;20213;-85
2023/09/14 04:29:54;;;;;;;3.75;3.10;;;;;;;16.33;62.26;97730.41;4913035;28;20190;-84
2023/09/14 04:32:20;;;;;;;4.10;2.80;;;;;;;16.19;62.88;97708.38;4936893;28;20294;-85
2023/09/14 04:34:45;;;;;;;3.83;3.03;;;;;;;16.23;62.68;97709.44;4915007;28;20206;-85
2023/09/14 04:37:10;;;;;;;3.17;2.88;;;;;;;16.21;62.19;97701.81;4933411;28;20321;-85
2023/09/14 04:39:36;;;;;;;3.83;3.00;;;;;;;16.28;61.59;97720.69;4916828;28;20162;-85
2023/09/14 04:42:01;;;;;;;3.50;3.20;;;;;;;16.31;61.87;97727.25;4899654;28;20692;-85
2023/09/14 04:44:27;;;;;;;4.75;3.10;;;;;;;16.15;60.95;97713.38;4936961;28;20267;-85
2023/09/14 04:46:52;;;;;;;3.88;3.20;;;;;;;16.11;61.78;97714.97;4920014;28;20296;-85
2023/09/14 04:49:17;;;;;;;3.22;2.92;;;;;;;16.24;60.94;97740.66;4904971;28;20201;-85
2023/09/14 04:51:43;;;;;;;4.03;3.22;;;;;;;16.10;60.94;97718.63;4897490;28;20182;-85
2023/09/14 04:54:08;;;;;;;3.30;2.85;;;;;;;16.29;60.89;97740.66;4906401;28;20111;-85
2023/09/14 04:56:33;;;;;;;3.20;2.90;;;;;;;16.20;60.75;97731.75;4904659;28;20401;-85
2023/09/14 04:59:00;;;;;;;3.35;2.80;;;;;;;16.08;61.00;97715.50;4918735;28;20229;-85
2023/09/14 05:01:25;;;;;;;3.30;3.00;;;;;;;16.18;60.86;97741.75;4921845;28;20262;-84
2023/09/14 05:03:51;;;;;;;4.88;2.58;;;;;;;16.12;60.64;97728.88;4917670;28;20249;-85
2023/09/14 05:06:16;;;;;;;3.75;2.67;;;;;;;16.23;60.43;97733.84;4920962;28;20204;-84
2023/09/14 05:08:41;;;;;;;4.22;2.33;;;;;;;16.01;61.17;97715.78;4927665;28;20237;-84
2023/09/14 05:11:07;;;;;;;3.45;2.92;;;;;;;16.15;61.34;97738.88;4925729;28;20185;-84
2023/09/14 05:13:32;;;;;;;4.18;2.53;;;;;;;16.10;60.84;97742.28;4923490;28;20096;-84
2023/09/14 05:15:58;;;;;;;3.10;2.40;;;;;;;16.00;61.80;97724.69;4909960;28;20667;-83
2023/09/14 05:18:23;;;;;;;3.83;2.75;;;;;;;16.07;61.05;97734.94;4926165;28;20363;-83
2023/09/14 05:20:49;;;;;;;2.53;2.30;;;;;;;16.18;61.10;97749.63;4900641;28;20826;-83
2023/09/14 05:23:14;;;;;;;3.17;2.50;;;;;;;16.13;61.20;97744.38;4909738;28;20255;-83
2023/09/14 05:25:40;;;;;;;3.10;2.53;;;;;;;16.19;61.51;97750.41;4923411;28;20178;-83
2023/09/14 05:28:08;;;;;;;2.75;2.22;;;;;;;16.08;60.59;97737.28;4915157;28;20161;-83
2023/09/14 05:30:35;;;;;;;3.88;2.83;;;;;;;16.14;61.84;97751.19;4932388;28;20191;-83
2023/09/14 05:33:01;;;;;;;3.38;2.20;;;;;;;16.14;61.80;97758.31;4922912;28;20307;-83
2023/09/14 05:35:26;;;;;;;2.90;2.05;;;;;;;16.17;61.69;97757.78;4928186;28;20174;-83
2023/09/14 05:37:52;;;;;;;3.42;2.30;;;;;;;16.06;60.40;97736.00;4910222;28;20157;-83
2023/09/14 05:40:17;;;;;;;4.18;2.63;;;;;;;16.23;61.19;97761.97;4899059;28;20649;-83
2023/09/14 05:42:43;;;;;;;3.60;2.30;;;;;;;16.17;61.35;97763.81;4898246;28;20209;-83
2023/09/14 05:45:11;;;;;;;3.90;2.00;;;;;;;16.22;61.42;97758.53;4916678;28;20356;-83
2023/09/14 05:47:37;;;;;;;3.55;2.65;;;;;;;16.25;62.14;97771.16;4931608;28;20158;-82
2023/09/14 05:50:06;;;;;;;3.53;2.50;;;;;;;16.14;61.35;97745.94;4904348;28;20232;-84
2023/09/14 05:52:32;;;;;;;4.15;2.20;;;;;;;16.25;61.64;97757.22;4943505;28;20251;-83
2023/09/14 05:54:57;;;;;;;3.42;2.58;;;;;;;16.42;61.78;97777.97;4907586;28;20650;-83
2023/09/14 05:57:23;;;;;;;3.63;1.88;;;;;;;16.40;61.36;97756.38;4912047;28;20099;-83
2023/09/14 05:59:48;;;;;;;3.80;2.17;;;;;;;16.52;61.07;97770.03;4911951;28;20296;-84
2023/09/14 06:02:14;;;;;;;4.22;2.08;;;;;;;16.53;60.77;97753.19;4921426;28;20655;-83
2023/09/14 06:04:40;;;;;;;4.80;2.30;;;;;;;16.56;61.06;97750.03;4914525;28;20166;-83
2023/09/14 06:07:05;;;;;;;4.03;2.40;;;;;;;16.58;60.92;97757.66;4904581;28;20200;-83
2023/09/14 06:09:30;;;;;;;3.95;2.40;;;;;;;16.54;60.92;97739.00;4914223;28;20566;-84
2023/09/14 06:11:56;;;;;;;4.20;3.03;;;;;;;16.71;60.52;97766.78;4928632;28;20245;-83
2023/09/14 06:14:22;;;;;;;4.10;2.30;;;;;;;16.78;60.69;97762.06;4934646;28;20709;-83
2023/09/14 06:16:47;;;;;;;3.53;2.22;;;;;;;16.70;60.40;97744.22;4911811;28;20191;-82
2023/09/14 06:19:13;;;;;;;3.45;2.13;;;;;;;16.87;60.45;97765.72;4919286;28;20191;-83
2023/09/14 06:21:38;;;;;;;2.55;2.33;;;;;;;16.66;60.65;97739.47;4917172;28;20045;-84
2023/09/14 06:24:04;;;;;;;3.33;2.38;;;;;;;16.79;61.38;97753.09;4935604;28;20323;-83
2023/09/14 06:26:30;;;;;;;4.00;2.40;;;;;;;16.99;60.03;97755.66;4924908;28;20629;-83
2023/09/14 06:28:56;;;;;;;3.53;2.20;;;;;;;17.13;60.55;97762.97;4930424;28;20611;-83
2023/09/14 06:31:25;;;;;;;4.20;2.38;;;;;;;17.23;59.85;97760.25;4931928;28;20232;-83
2023/09/14 06:33:51;;;;;;;3.53;2.00;;;;;;;17.25;59.30;97758.13;4935769;28;20245;-83
2023/09/14 06:36:21;;;;;;;5.32;2.45;;;;;;;17.31;59.19;97764.19;4962300;28;20256;-83
2023/09/14 06:38:47;;;;;;;4.25;2.30;;;;;;;17.30;59.29;97767.84;4922185;28;20210;-83
2023/09/14 06:41:13;;;;;;;3.60;2.40;;;;;;;17.38;59.39;97772.53;4933313;28;20653;-84
2023/09/14 06:43:40;;;;;;;2.95;1.95;;;;;;;17.37;58.30;97755.94;4948300;28;20196;-84
2023/09/14 06:46:06;;;;;;;4.28;2.42;;;;;;;17.34;58.18;97747.81;4938779;28;20277;-84
2023/09/14 06:48:32;;;;;;;3.33;1.85;;;;;;;17.45;58.16;97740.66;4907292;28;20197;-83
2023/09/14 06:50:58;;;;;;;3.60;2.03;;;;;;;17.69;58.13;97767.06;4931760;28;20223;-84
2023/09/14 06:53:23;;;;;;;4.45;2.20;;;;;;;17.64;58.08;97744.19;4942843;28;20691;-83
2023/09/14 06:55:48;;;;;;;3.10;2.20;;;;;;;17.81;58.08;97770.13;4937347;28;20033;-84
2023/09/14 06:58:14;;;;;;;4.30;2.50;;;;;;;17.90;57.05;97757.94;4952597;28;20183;-84
2023/09/14 07:00:40;;;;;;;3.38;1.90;;;;;;;18.04;57.49;97773.88;4944724;28;20243;-84
2023/09/14 07:03:05;;;;;;;3.50;2.08;;;;;;;18.03;57.07;97759.16;4912050;28;20178;-84
2023/09/14 07:05:32;;;;;;;2.50;1.80;;;;;;;18.06;56.80;97745.44;4925297;28;20046;-84
2023/09/14 07:07:58;;;;;;;4.13;2.30;;;;;;;18.44;55.98;97773.75;4920268;28;20106;-84
2023/09/14 07:10:25;;;;;;;3.03;2.17;;;;;;;18.49;56.19;97763.94;4923828;28;20245;-84
2023/09/14 07:12:50;;;;;;;2.50;2.05;;;;;;;18.36;55.31;97771.75;4944099;28;20467;-84
2023/09/14 07:15:16;;;;;;;4.15;2.13;;;;;;;18.45;54.82;97760.28;4957465;28;20037;-84
2023/09/14 07:17:41;;;;;;;3.58;2.38;;;;;;;18.66;54.03;97773.25;4909930;28;20122;-84
2023/09/14 07:20:08;;;;;;;5.03;2.30;;;;;;;18.67;54.44;97759.00;4923587;28;20265;-84
2023/09/14 07:22:33;;;;;;;3.05;2.33;;;;;;;18.91;54.10;97785.38;4921942;28;20750;-83
2023/09/14 07:24:59;;;;;;;2.83;1.95;;;;;;;18.94;54.23;97779.53;4906581;28;20187;-84
2023/09/14 07:27:24;;;;;;;4.68;2.03;;;;;;;19.15;53.33;97787.97;4904412;28;20215;-84
2023/09/14 07:29:50;;;;;;;2.53;1.85;;;;;;;19.15;52.63;97766.06;4918875;28;20158;-83
2023/09/14 07:32:15;;;;;;;5.43;1.90;;;;;;;19.17;52.19;97780.53;4943036;28;20238;-84
2023/09/14 07:34:41;;;;;;;3.05;1.92;;;;;;;19.44;52.36;97787.81;4908170;28;20162;-85
2023/09/14 07:37:06;;;;;;;2.58;1.70;;;;;;;19.60;52.59;97772.53;4908422;28;20220;-84
2023/09/14 07:39:31;;;;;;;3.40;1.80;;;;;;;19.88;51.85;97767.34;4914254;28;20115;-86
2023/09/14 07:41:57;;;;;;;3.28;1.90;;;;;;;20.21;51.45;97788.47;4912671;28;20095;-84
2023/09/14 07:44:22;;;;;;;2.95;1.83;;;;;;;20.24;49.55;97795.81;4922063;28;20382;-85
2023/09/14 07:46:48;;;;;;;3.55;2.10;;;;;;;20.43;49.52;97794.97;4926846;28;20223;-85
2023/09/14 07:49:14;;;;;;;3.08;1.77;;;;;;;20.08;49.49;97784.72;4928250;28;20022;-85
2023/09/14 07:51:39;;;;;;;2.67;1.73;;;;;;;20.18;49.12;97787.16;4918597;28;20037;-84
2023/09/14 07:54:05;;;;;;;3.22;1.67;;;;;;;20.39;48.85;97792.91;4925796;28;20764;-86
2023/09/14 07:56:30;;;;;;;3.13;1.80;;;;;;;20.88;48.68;97797.81;4936501;28;20223;-86
2023/09/14 07:58:56;;;;;;;2.67;1.60;;;;;;;20.72;47.65;97802.63;4934220;28;20030;-86
2023/09/14 08:01:22;;;;;;;2.53;1.42;;;;;;;20.81;48.36;97797.44;4922586;28;20046;-85
2023/09/14 08:03:47;;;;;;;4.57;1.70;;;;;;;21.04;48.13;97807.00;4974403;28;20208;-84
2023/09/14 08:06:15;;;;;;;2.55;1.70;;;;;;;21.08;47.87;97788.66;4958756;28;20510;-86
2023/09/14 08:08:40;;;;;;;3.40;1.92;;;;;;;21.24;47.03;97789.88;4928537;28;20057;-84
2023/09/14 08:11:06;;;;;;;3.78;1.50;;;;;;;21.32;46.42;97801.66;4923165;28;20212;-86
2023/09/14 08:13:32;;;;;;;3.53;1.80;;;;;;;21.11;46.76;97780.91;4922302;28;20672;-87
2023/09/14 08:16:05;;;;;;;2.20;1.90;;;;;;;21.53;46.45;97811.81;4901816;28;20643;-84
2023/09/14 08:18:30;;;;;;;2.47;1.98;;;;;;;21.68;46.38;97812.25;4904971;28;20209;-87
2023/09/14 08:20:56;;;;;;;3.03;2.00;;;;;;;21.78;45.98;97802.47;4919710;28;20096;-85
2023/09/14 08:23:21;;;;;;;3.00;1.50;;;;;;;21.79;45.80;97783.63;4913636;28;20519;-84
2023/09/14 08:25:47;;;;;;;2.53;1.65;;;;;;;21.98;45.64;97807.28;4906002;28;20206;-86
2023/09/14 08:28:14;;;;;;;2.40;1.83;;;;;;;22.02;45.08;97802.16;4948269;28;20703;-85
2023/09/14 08:30:42;;;;;;;2.20;1.40;;;;;;;22.31;44.60;97788.47;4975569;28;20094;-85
2023/09/14 08:33:08;;;;;;;2.20;1.48;;;;;;;22.39;44.32;97795.66;4945363;28;20251;-85
2023/09/14 08:35:34;;;;;;;3.10;1.75;;;;;;;22.47;43.93;97785.41;4975555;28;20178;-85
2023/09/14 08:38:03;;;;;;;2.80;1.30;;;;;;;22.50;44.20;97801.47;4948336;28;20686;-86
2023/09/14 08:40:29;;;;;;;3.60;1.60;;;;;;;22.76;43.82;97804.22;4951276;28;20373;-86
2023/09/14 08:42:55;;;;;;;3.33;1.40;;;;;;;22.57;43.85;97793.06;4929718;28;20034;-86
2023/09/14 08:45:30;;;;;;;2.78;1.30;;;;;;;22.81;43.89;97797.97;4950281;28;20141;-85
2023/09/14 08:47:57;;;;;;;3.28;1.73;;;;;;;23.03;43.89;97806.91;4966990;28;20033;-85
2023/09/14 08:50:28;;;;;;;2.20;1.73;;;;;;;23.25;43.18;97798.84;4969758;28;20488;-86
2023/09/14 08:52:54;;;;;;;2.38;1.38;;;;;;;23.20;43.21;97783.06;4960522;28;20276;-86
2023/09/14 08:55:21;;;;;;;3.88;1.55;;;;;;;23.17;43.62;97784.47;4958260;28;20088;-86
2023/09/14 08:57:48;;;;;;;3.20;1.60;;;;;;;23.70;43.10;97803.84;4925875;28;20184;-85
2023/09/14 09:00:15;;;;;;;2.13;1.70;;;;;;;23.80;42.81;97802.72;4926673;28;20217;-84
2023/09/14 09:02:44;;;;;;;2.55;1.33;;;;;;;23.68;42.14;97789.28;4946294;28;20153;-85
2023/09/14 09:05:14;;;;;;;2.75;1.58;;;;;;;23.72;42.76;97796.31;4953747;28;20121;-85
2023/09/14 09:07:43;;;;;;;1.50;1.40;;;;;;;24.05;42.85;97797.69;4931127;28;20699;-85
2023/09/14 09:10:18;;;;;;;3.42;1.75;;;;;;;23.72;42.41;97782.25;4958479;28;20258;-85
2023/09/14 09:12:45;;;;;;;2.42;1.73;;;;;;;24.23;41.54;97798.41;4942766;28;20187;-84
2023/09/14 09:15:12;;;;;;;2.20;1.65;;;;;;;24.25;41.83;97806.88;4955498;28;20181;-85
2023/09/14 09:17:39;;;;;;;3.00;1.60;;;;;;;24.14;40.82;97781.72;4979721;28;20105;-86
2023/09/14 09:20:25;;;;;;;2.25;1.80;;;;;;;24.25;41.69;97794.34;4974110;28;20221;-84
2023/09/14 09:22:52;;;;;;;2.00;1.20;;;;;;;24.54;40.27;97806.16;4935330;28;20044;-86
2023/09/14 09:25:18;;;;;;;2.88;1.20;;;;;;;24.63;39.59;97801.56;4960087;28;20146;-85
2023/09/14 09:27:44;;;;;;;2.78;1.67;;;;;;;24.73;39.09;97800.44;4909398;28;20241;-85
2023/09/14 09:30:10;;;;;;;3.25;1.38;;;;;;;24.68;40.78;97795.28;4941787;28;20675;-84
2023/09/14 09:32:39;;;;;;;2.40;1.50;;;;;;;24.57;40.06;97786.09;4946116;28;20030;-86
2023/09/14 09:35:18;;;;;;;1.60;1.30;;;;;;;24.47;40.46;97800.50;4943974;28;20030;-84
2023/09/14 09:37:43;;;;;;;1.67;1.25;;;;;;;24.58;40.33;97790.34;4936807;28;20198;-84
2023/09/14 09:40:13;;;;;;;2.03;1.50;;;;;;;24.64;40.34;97786.38;4971600;28;20018;-85
2023/09/14 09:42:39;;;;;;;2.72;1.60;;;;;;;24.18;39.62;97764.78;4946364;28;20205;-85
2023/09/14 09:45:05;;;;;;;2.70;1.60;;;;;;;24.82;39.91;97790.50;4948985;28;20171;-85
2023/09/14 09:47:34;;;;;;;1.55;1.45;;;;;;;25.02;38.32;97790.88;4957405;28;20081;-87
2023/09/14 09:50:01;;;;;;;3.88;1.80;;;;;;;24.73;39.09;97787.13;4943787;28;20027;-86
2023/09/14 09:52:32;;;;;;;4.22;1.92;;;;;;;25.02;39.60;97798.84;4948223;28;20026;-85
2023/09/14 09:54:58;;;;;;;3.28;1.80;;;;;;;25.19;38.59;97766.75;4961304;28;20595;-86
2023/09/14 09:57:28;;;;;;;1.95;1.50;;;;;;;25.22;38.41;97787.41;4968170;28;20189;-85
2023/09/14 09:59:55;;;;;;;2.25;1.17;;;;;;;25.15;38.71;97802.34;4929124;28;20213;-86
2023/09/14 10:02:29;;;;;;;2.55;1.98;;;;;;;25.02;38.37;97796.19;4899538;28;20170;-87
2023/09/14 10:04:54;;;;;;;2.08;1.50;;;;;;;25.37;37.47;97785.28;4903970;28;20204;-85
2023/09/14 10:07:22;;;;;;;2.63;1.40;;;;;;;25.32;37.31;97766.81;4882286;28;20178;-84
2023/09/14 10:09:49;;;;;;;2.70;1.40;;;;;;;25.53;36.06;97772.94;4895694;28;20160;-85
2023/09/14 10:12:15;;;;;;;1.65;1.55;;;;;;;25.28;38.29;97765.94;4909829;28;20248;-86
2023/09/14 10:14:42;;;;;;;1.92;1.23;;;;;;;25.58;38.71;97775.38;4915004;28;20231;-85
2023/09/14 10:17:10;;;;;;;1.65;1.40;;;;;;;25.86;37.29;97750.78;4923954;28;20158;-85
2023/09/14 10:19:38;;;;;;;1.85;1.75;;;;;;;25.73;37.92;97783.88;4902661;28;20255;-86
2023/09/14 10:22:04;;;;;;;1.83;1.73;;;;;;;25.60;37.90;97785.69;4936321;28;20217;-88
2023/09/14 10:24:29;;;;;;;3.65;1.77;;;;;;;25.30;37.91;97743.16;4902737;28;20289;-86
2023/09/14 10:26:56;;;;;;;2.00;1.40;;;;;;;25.79;37.83;97785.22;4928221;28;20673;-85
2023/09/14 10:29:23;;;;;;;2.25;1.50;;;;;;;25.90;36.88;97778.34;4916508;28;20291;-86
2023/09/14 10:31:50;;;;;;;2.25;1.45;;;;;;;25.84;36.93;97786.88;4901964;28;20162;-87
2023/09/14 10:34:16;;;;;;;3.25;1.65;;;;;;;26.03;36.54;97757.06;4910075;28;20272;-85
2023/09/14 10:36:43;;;;;;;2.33;1.92;;;;;;;25.67;37.24;97742.50;4927492;28;20174;-86
2023/09/14 10:39:12;;;;;;;2.35;1.65;;;;;;;25.94;37.89;97763.28;4921146;28;20296;-86
2023/09/14 10:41:37;;;;;;;5.75;1.80;;;;;;;26.01;36.93;97759.28;4918206;28;20072;-87
2023/09/14 10:44:04;;;;;;;1.67;1.40;;;;;;;26.06;37.36;97772.41;4919675;28;20342;-86
2023/09/14 10:46:33;;;;;;;2.80;1.55;;;;;;;26.12;38.03;97739.06;4922746;28;20296;-86
2023/09/14 10:48:59;;;;;;;1.60;1.40;;;;;;;26.25;37.75;97745.97;4924282;28;20660;-86
2023/09/14 10:51:28;;;;;;;1.85;1.30;;;;;;;26.89;34.54;97741.03;4908868;28;20255;-86
2023/09/14 10:53:53;;;;;;;2.42;1.80;;;;;;;27.05;35.19;97757.13;4902421;28;20762;-85
2023/09/14 10:56:23;;;;;;;1.67;1.45;;;;;;;27.46;34.92;97750.66;4895925;28;20209;-86
2023/09/14 10:58:52;;;;;;;1.52;1.20;;;;;;;28.10;35.18;97734.69;4905896;28;20174;-86
2023/09/14 11:01:25;;;;;;;1.80;1.55;;;;;;;27.67;34.16;97722.91;4920044;28;20277;-85
2023/09/14 11:04:13;;;;;;;3.55;1.70;;;;;;;27.71;34.52;97736.38;4939501;28;20174;-86
2023/09/14 11:06:49;;;;;;;2.30;1.75;;;;;;;27.65;34.96;97741.97;4958157;28;20038;-86
2023/09/14 11:09:16;;;;;;;1.30;1.20;;;;;;;27.44;34.97;97728.81;4956290;28;20132;-85
2023/09/14 11:11:46;;;;;;;1.55;1.45;;;;;;;27.24;34.49;97716.41;4960784;28;20030;-86
2023/09/14 11:14:14;;;;;;;2.25;1.35;;;;;;;27.74;34.63;97727.66;4970200;28;20206;-86
2023/09/14 11:16:57;;;;;;;1.75;1.23;;;;;;;27.79;34.21;97724.72;4936411;28;20113;-86
2023/09/14 11:19:31;;;;;;;1.90;1.58;;;;;;;27.87;33.14;97725.69;4939644;28;20127;-87
2023/09/14 11:22:13;;;;;;;2.40;1.30;;;;;;;27.38;35.11;97718.72;4959029;28;20029;-85
2023/09/14 11:24:38;;;;;;;2.75;1.50;;;;;;;27.34;34.68;97704.47;4957545;28;20178;-85
2023/09/14 11:27:04;;;;;;;1.98;1.40;;;;;;;27.67;34.29;97696.16;4939372;28;20198;-85
2023/09/14 11:29:33;;;;;;;1.40;1.30;;;;;;;27.86;35.82;97713.44;4918542;28;20242;-85
2023/09/14 11:32:02;;;;;;;1.50;1.30;;;;;;;27.38;35.63;97714.13;4967147;28;20030;-86